Clarkview, GA

6:29 PM EST on December 02, 2016 (GMT -0500)
Macon | | Change Station

Elev 0 ft 32.85 °N, 83.71 °W | Updated 52 seconds ago

Clear
Clear
56.3 °F
Feels Like 56.3 °F
N
0.6
Wind Variable Wind from NW
Gusts 1.2 mph

Today
High -- | Low -- °F
--% Chance of Precip.
Yesterday
High -- | Low -- °F
Precip. -- in
Pressure 30.22 in
Visibility 10.0 miles
Clouds Clear
Dew Point 40 °F
Humidity 55%
Rainfall 0.00 in
Snow Depth Not available.
7:20 AM 5:28 PM
Waxing Crescent, 11% visible
METAR KMCN 022253Z 32004KT 10SM CLR 13/M02 A3022 RMK AO2 SLP231 T01331017
Pressure 30.22 in
Visibility 10.0 miles
Clouds Clear
Dew Point 40 °F
Humidity 55%
Rainfall 0.00 in
Snow Depth Not available.
7:20 AM 5:28 PM
Waxing Crescent, 11% visible
METAR KMCN 022253Z 32004KT 10SM CLR 13/M02 A3022 RMK AO2 SLP231 T01331017

10-Day Weather Forecast

Almanac

Astronomy

Dec. 02, 2016 Rise Set
Actual Time
Civil Twilight
Nautical Twilight
Astronomical Twilight
Moon
Length of Visible Light
Length of Day
Tomorrow will be .
, % of the Moon is Illuminated

Today's Extremes

State Highs State Lows

Community

WunderPhotos

Upload Photos

1,955,378 photos uploaded!

WunderBlog® & News

Nearby

Air Quality

  Air Quality AQ Index Pollutant
Not available.

Snow Depth

Station Depth Elevation

Earthquake Activity

City Distance Mag. Time & Date
Minimum magnitude displayed is 2.5.

Coastal Water Temperatures

Place Temperature

Stations

Nearby Weather Stations

Station Location Temp. Windchill Dew Point Humidity Wind Precip. Elev Updated Type
                   

Watches & Warnings

There are currently no watches in effect.